sensor_id;sensor_type;location;lat;lon;timestamp;P1;durP1;ratioP1;P2;durP2;ratioP2
76113;SDS011;64845;53.086;5.834;2023-07-20T00:01:12;2.35;;;2.15;;
76113;SDS011;64845;53.086;5.834;2023-07-20T00:03:37;3.65;;;2.45;;
76113;SDS011;64845;53.086;5.834;2023-07-20T00:06:02;4.47;;;2.60;;
76113;SDS011;64845;53.086;5.834;2023-07-20T00:08:29;3.58;;;2.50;;
76113;SDS011;64845;53.086;5.834;2023-07-20T00:10:55;3.47;;;2.42;;
76113;SDS011;64845;53.086;5.834;2023-07-20T00:13:21;2.90;;;2.30;;
76113;SDS011;64845;53.086;5.834;2023-07-20T00:15:46;5.85;;;2.78;;
76113;SDS011;64845;53.086;5.834;2023-07-20T00:18:12;3.80;;;2.50;;
76113;SDS011;64845;53.086;5.834;2023-07-20T00:20:38;4.78;;;2.58;;
76113;SDS011;64845;53.086;5.834;2023-07-20T00:23:03;4.15;;;2.28;;
76113;SDS011;64845;53.086;5.834;2023-07-20T00:25:29;7.32;;;2.40;;
76113;SDS011;64845;53.086;5.834;2023-07-20T00:27:54;3.40;;;2.60;;
76113;SDS011;64845;53.086;5.834;2023-07-20T00:30:20;2.78;;;2.58;;
76113;SDS011;64845;53.086;5.834;2023-07-20T00:32:45;5.22;;;2.67;;
76113;SDS011;64845;53.086;5.834;2023-07-20T00:35:11;4.43;;;2.53;;
76113;SDS011;64845;53.086;5.834;2023-07-20T00:37:37;2.63;;;2.38;;
76113;SDS011;64845;53.086;5.834;2023-07-20T00:40:04;5.63;;;2.60;;
76113;SDS011;64845;53.086;5.834;2023-07-20T00:42:30;3.25;;;2.60;;
76113;SDS011;64845;53.086;5.834;2023-07-20T00:44:56;3.20;;;2.90;;
76113;SDS011;64845;53.086;5.834;2023-07-20T00:47:21;3.88;;;2.22;;
76113;SDS011;64845;53.086;5.834;2023-07-20T00:49:47;4.57;;;2.60;;
76113;SDS011;64845;53.086;5.834;2023-07-20T00:52:13;5.55;;;2.50;;
76113;SDS011;64845;53.086;5.834;2023-07-20T00:54:39;4.78;;;2.67;;
76113;SDS011;64845;53.086;5.834;2023-07-20T00:57:06;3.00;;;2.60;;
76113;SDS011;64845;53.086;5.834;2023-07-20T00:59:33;3.30;;;2.53;;
76113;SDS011;64845;53.086;5.834;2023-07-20T01:01:59;5.53;;;2.33;;
76113;SDS011;64845;53.086;5.834;2023-07-20T01:04:24;3.95;;;2.50;;
76113;SDS011;64845;53.086;5.834;2023-07-20T01:09:42;2.45;;;2.25;;
76113;SDS011;64845;53.086;5.834;2023-07-20T01:12:16;3.22;;;2.33;;
76113;SDS011;64845;53.086;5.834;2023-07-20T01:14:43;2.97;;;2.67;;
76113;SDS011;64845;53.086;5.834;2023-07-20T01:17:08;4.78;;;2.53;;
76113;SDS011;64845;53.086;5.834;2023-07-20T01:19:33;4.13;;;2.50;;
76113;SDS011;64845;53.086;5.834;2023-07-20T01:32:35;3.22;;;2.40;;
76113;SDS011;64845;53.086;5.834;2023-07-20T01:35:03;3.28;;;2.38;;
76113;SDS011;64845;53.086;5.834;2023-07-20T01:37:30;2.65;;;2.20;;
76113;SDS011;64845;53.086;5.834;2023-07-20T01:39:58;2.97;;;2.28;;
76113;SDS011;64845;53.086;5.834;2023-07-20T01:42:25;4.95;;;2.20;;
76113;SDS011;64845;53.086;5.834;2023-07-20T01:44:51;2.97;;;2.40;;
76113;SDS011;64845;53.086;5.834;2023-07-20T01:47:19;4.75;;;2.33;;
76113;SDS011;64845;53.086;5.834;2023-07-20T01:49:45;7.38;;;2.20;;
76113;SDS011;64845;53.086;5.834;2023-07-20T01:52:10;3.15;;;2.20;;
76113;SDS011;64845;53.086;5.834;2023-07-20T01:54:36;3.40;;;2.63;;
76113;SDS011;64845;53.086;5.834;2023-07-20T01:57:02;5.75;;;2.40;;
76113;SDS011;64845;53.086;5.834;2023-07-20T01:59:27;2.90;;;2.40;;
76113;SDS011;64845;53.086;5.834;2023-07-20T02:01:53;3.08;;;2.33;;
76113;SDS011;64845;53.086;5.834;2023-07-20T02:04:19;5.22;;;2.40;;
76113;SDS011;64845;53.086;5.834;2023-07-20T02:06:44;2.42;;;2.20;;
76113;SDS011;64845;53.086;5.834;2023-07-20T02:09:09;3.67;;;2.45;;
76113;SDS011;64845;53.086;5.834;2023-07-20T02:11:35;3.25;;;2.08;;
76113;SDS011;64845;53.086;5.834;2023-07-20T02:14:00;2.50;;;2.17;;
76113;SDS011;64845;53.086;5.834;2023-07-20T02:16:26;2.60;;;2.20;;
76113;SDS011;64845;53.086;5.834;2023-07-20T02:18:52;5.15;;;2.35;;
76113;SDS011;64845;53.086;5.834;2023-07-20T02:21:17;4.25;;;2.50;;
76113;SDS011;64845;53.086;5.834;2023-07-20T02:23:43;3.17;;;2.10;;
76113;SDS011;64845;53.086;5.834;2023-07-20T02:26:08;3.75;;;2.15;;
76113;SDS011;64845;53.086;5.834;2023-07-20T02:28:33;5.93;;;2.35;;
76113;SDS011;64845;53.086;5.834;2023-07-20T02:30:59;4.22;;;2.22;;
76113;SDS011;64845;53.086;5.834;2023-07-20T02:33:25;3.53;;;2.22;;
76113;SDS011;64845;53.086;5.834;2023-07-20T02:35:51;3.08;;;2.08;;
76113;SDS011;64845;53.086;5.834;2023-07-20T02:38:17;3.00;;;2.17;;
76113;SDS011;64845;53.086;5.834;2023-07-20T02:40:42;3.97;;;2.50;;
76113;SDS011;64845;53.086;5.834;2023-07-20T02:43:08;4.07;;;2.42;;
76113;SDS011;64845;53.086;5.834;2023-07-20T02:45:34;2.33;;;2.13;;
76113;SDS011;64845;53.086;5.834;2023-07-20T02:48:00;6.20;;;2.10;;
76113;SDS011;64845;53.086;5.834;2023-07-20T02:50:26;2.47;;;2.20;;
76113;SDS011;64845;53.086;5.834;2023-07-20T02:52:51;3.60;;;2.47;;
76113;SDS011;64845;53.086;5.834;2023-07-20T02:55:16;2.53;;;2.20;;
76113;SDS011;64845;53.086;5.834;2023-07-20T02:57:42;3.95;;;2.20;;
76113;SDS011;64845;53.086;5.834;2023-07-20T03:00:07;4.65;;;2.20;;
76113;SDS011;64845;53.086;5.834;2023-07-20T03:02:34;5.75;;;2.28;;
76113;SDS011;64845;53.086;5.834;2023-07-20T03:04:59;2.58;;;2.10;;
76113;SDS011;64845;53.086;5.834;2023-07-20T03:07:26;2.78;;;2.30;;
76113;SDS011;64845;53.086;5.834;2023-07-20T03:09:53;2.20;;;2.10;;
76113;SDS011;64845;53.086;5.834;2023-07-20T03:12:18;4.13;;;2.40;;
76113;SDS011;64845;53.086;5.834;2023-07-20T03:14:43;5.20;;;2.38;;
76113;SDS011;64845;53.086;5.834;2023-07-20T03:17:09;2.67;;;2.20;;
76113;SDS011;64845;53.086;5.834;2023-07-20T03:19:34;5.97;;;2.40;;
76113;SDS011;64845;53.086;5.834;2023-07-20T03:21:59;3.25;;;2.25;;
76113;SDS011;64845;53.086;5.834;2023-07-20T03:24:25;4.60;;;2.53;;
76113;SDS011;64845;53.086;5.834;2023-07-20T03:26:50;7.85;;;2.55;;
76113;SDS011;64845;53.086;5.834;2023-07-20T03:29:16;3.75;;;2.30;;
76113;SDS011;64845;53.086;5.834;2023-07-20T03:31:41;4.68;;;2.42;;
76113;SDS011;64845;53.086;5.834;2023-07-20T03:34:06;3.45;;;2.80;;
76113;SDS011;64845;53.086;5.834;2023-07-20T03:36:33;3.05;;;2.58;;
76113;SDS011;64845;53.086;5.834;2023-07-20T03:38:59;6.82;;;2.92;;
76113;SDS011;64845;53.086;5.834;2023-07-20T03:41:24;3.33;;;2.58;;
76113;SDS011;64845;53.086;5.834;2023-07-20T03:43:49;5.32;;;2.53;;
76113;SDS011;64845;53.086;5.834;2023-07-20T03:46:15;5.95;;;2.90;;
76113;SDS011;64845;53.086;5.834;2023-07-20T03:48:40;6.38;;;2.92;;
76113;SDS011;64845;53.086;5.834;2023-07-20T03:51:06;3.97;;;2.47;;
76113;SDS011;64845;53.086;5.834;2023-07-20T03:53:31;3.90;;;2.80;;
76113;SDS011;64845;53.086;5.834;2023-07-20T03:55:57;3.63;;;2.80;;
76113;SDS011;64845;53.086;5.834;2023-07-20T03:58:23;2.85;;;2.60;;
76113;SDS011;64845;53.086;5.834;2023-07-20T04:00:49;4.55;;;2.90;;
76113;SDS011;64845;53.086;5.834;2023-07-20T04:03:16;4.82;;;2.55;;
76113;SDS011;64845;53.086;5.834;2023-07-20T04:05:43;4.43;;;2.60;;
76113;SDS011;64845;53.086;5.834;2023-07-20T04:08:09;3.22;;;2.83;;
76113;SDS011;64845;53.086;5.834;2023-07-20T04:10:36;4.03;;;2.60;;
76113;SDS011;64845;53.086;5.834;2023-07-20T04:13:01;3.47;;;2.58;;
76113;SDS011;64845;53.086;5.834;2023-07-20T04:15:27;5.00;;;2.80;;
76113;SDS011;64845;53.086;5.834;2023-07-20T04:17:52;3.90;;;2.88;;
76113;SDS011;64845;53.086;5.834;2023-07-20T04:20:17;4.35;;;2.90;;
76113;SDS011;64845;53.086;5.834;2023-07-20T04:22:43;3.70;;;2.75;;
76113;SDS011;64845;53.086;5.834;2023-07-20T04:25:09;3.55;;;2.75;;
76113;SDS011;64845;53.086;5.834;2023-07-20T04:27:35;6.13;;;2.85;;
76113;SDS011;64845;53.086;5.834;2023-07-20T04:30:01;3.28;;;2.70;;
76113;SDS011;64845;53.086;5.834;2023-07-20T04:32:27;3.90;;;2.75;;
76113;SDS011;64845;53.086;5.834;2023-07-20T04:34:52;3.45;;;2.60;;
76113;SDS011;64845;53.086;5.834;2023-07-20T04:37:18;6.32;;;2.72;;
76113;SDS011;64845;53.086;5.834;2023-07-20T04:39:43;4.88;;;2.70;;
76113;SDS011;64845;53.086;5.834;2023-07-20T04:42:08;3.40;;;2.65;;
76113;SDS011;64845;53.086;5.834;2023-07-20T04:44:34;4.40;;;3.05;;
76113;SDS011;64845;53.086;5.834;2023-07-20T04:46:59;3.72;;;2.70;;
76113;SDS011;64845;53.086;5.834;2023-07-20T04:49:25;5.13;;;2.80;;
76113;SDS011;64845;53.086;5.834;2023-07-20T04:51:51;5.05;;;2.70;;
76113;SDS011;64845;53.086;5.834;2023-07-20T04:54:16;3.13;;;2.72;;
76113;SDS011;64845;53.086;5.834;2023-07-20T04:56:43;3.20;;;2.90;;
76113;SDS011;64845;53.086;5.834;2023-07-20T04:59:09;6.18;;;3.00;;
76113;SDS011;64845;53.086;5.834;2023-07-20T05:01:34;5.28;;;2.90;;
76113;SDS011;64845;53.086;5.834;2023-07-20T05:03:59;3.28;;;2.97;;
76113;SDS011;64845;53.086;5.834;2023-07-20T05:06:25;4.30;;;2.72;;
76113;SDS011;64845;53.086;5.834;2023-07-20T05:08:51;5.50;;;2.97;;
76113;SDS011;64845;53.086;5.834;2023-07-20T05:11:16;9.27;;;3.08;;
76113;SDS011;64845;53.086;5.834;2023-07-20T05:13:41;4.45;;;3.08;;
76113;SDS011;64845;53.086;5.834;2023-07-20T05:16:07;4.95;;;3.03;;
76113;SDS011;64845;53.086;5.834;2023-07-20T05:18:33;4.22;;;2.90;;
76113;SDS011;64845;53.086;5.834;2023-07-20T05:20:58;7.78;;;3.42;;
76113;SDS011;64845;53.086;5.834;2023-07-20T05:23:24;5.07;;;3.28;;
76113;SDS011;64845;53.086;5.834;2023-07-20T05:25:58;3.78;;;2.88;;
76113;SDS011;64845;53.086;5.834;2023-07-20T05:28:24;6.53;;;3.22;;
76113;SDS011;64845;53.086;5.834;2023-07-20T05:30:51;5.88;;;3.22;;
76113;SDS011;64845;53.086;5.834;2023-07-20T05:33:20;5.22;;;2.92;;
76113;SDS011;64845;53.086;5.834;2023-07-20T05:36:06;5.03;;;3.28;;
76113;SDS011;64845;53.086;5.834;2023-07-20T05:38:31;4.13;;;2.80;;
76113;SDS011;64845;53.086;5.834;2023-07-20T05:40:59;5.30;;;2.90;;
76113;SDS011;64845;53.086;5.834;2023-07-20T05:43:28;3.97;;;2.97;;
76113;SDS011;64845;53.086;5.834;2023-07-20T05:45:54;5.55;;;2.90;;
76113;SDS011;64845;53.086;5.834;2023-07-20T05:48:19;2.90;;;2.70;;
76113;SDS011;64845;53.086;5.834;2023-07-20T05:50:44;4.10;;;2.88;;
76113;SDS011;64845;53.086;5.834;2023-07-20T05:53:10;5.28;;;2.40;;
76113;SDS011;64845;53.086;5.834;2023-07-20T05:55:35;3.00;;;2.50;;
76113;SDS011;64845;53.086;5.834;2023-07-20T05:58:01;3.33;;;2.13;;
76113;SDS011;64845;53.086;5.834;2023-07-20T06:00:26;5.68;;;2.25;;
76113;SDS011;64845;53.086;5.834;2023-07-20T06:02:52;5.82;;;1.80;;
76113;SDS011;64845;53.086;5.834;2023-07-20T06:05:19;6.10;;;1.70;;
76113;SDS011;64845;53.086;5.834;2023-07-20T06:07:46;5.03;;;1.75;;
76113;SDS011;64845;53.086;5.834;2023-07-20T06:10:11;4.45;;;1.50;;
76113;SDS011;64845;53.086;5.834;2023-07-20T06:12:36;6.70;;;1.85;;
76113;SDS011;64845;53.086;5.834;2023-07-20T06:15:03;4.85;;;1.88;;
76113;SDS011;64845;53.086;5.834;2023-07-20T06:17:29;9.77;;;1.73;;
76113;SDS011;64845;53.086;5.834;2023-07-20T06:19:55;4.05;;;1.70;;
76113;SDS011;64845;53.086;5.834;2023-07-20T06:22:20;3.60;;;1.65;;
76113;SDS011;64845;53.086;5.834;2023-07-20T06:24:45;1.63;;;1.30;;
76113;SDS011;64845;53.086;5.834;2023-07-20T06:27:11;11.43;;;1.70;;
76113;SDS011;64845;53.086;5.834;2023-07-20T06:29:37;5.00;;;1.30;;
76113;SDS011;64845;53.086;5.834;2023-07-20T06:32:03;4.25;;;1.20;;
76113;SDS011;64845;53.086;5.834;2023-07-20T06:34:28;3.78;;;1.27;;
76113;SDS011;64845;53.086;5.834;2023-07-20T06:36:54;1.35;;;1.02;;
76113;SDS011;64845;53.086;5.834;2023-07-20T06:39:20;2.80;;;1.13;;
76113;SDS011;64845;53.086;5.834;2023-07-20T06:41:47;2.55;;;1.20;;
76113;SDS011;64845;53.086;5.834;2023-07-20T06:44:12;8.07;;;1.50;;
76113;SDS011;64845;53.086;5.834;2023-07-20T06:46:38;4.13;;;1.58;;
76113;SDS011;64845;53.086;5.834;2023-07-20T06:49:05;4.20;;;1.35;;
76113;SDS011;64845;53.086;5.834;2023-07-20T06:51:31;2.45;;;1.10;;
76113;SDS011;64845;53.086;5.834;2023-07-20T06:53:57;6.43;;;1.25;;
76113;SDS011;64845;53.086;5.834;2023-07-20T06:56:22;3.50;;;0.90;;
76113;SDS011;64845;53.086;5.834;2023-07-20T06:58:48;4.60;;;1.42;;
76113;SDS011;64845;53.086;5.834;2023-07-20T07:01:13;3.95;;;0.98;;
76113;SDS011;64845;53.086;5.834;2023-07-20T07:03:39;4.13;;;1.02;;
76113;SDS011;64845;53.086;5.834;2023-07-20T07:06:05;4.43;;;1.10;;
76113;SDS011;64845;53.086;5.834;2023-07-20T07:08:30;3.28;;;1.05;;
76113;SDS011;64845;53.086;5.834;2023-07-20T07:10:56;3.80;;;1.20;;
76113;SDS011;64845;53.086;5.834;2023-07-20T07:13:21;2.22;;;1.40;;
76113;SDS011;64845;53.086;5.834;2023-07-20T07:15:46;2.95;;;1.13;;
76113;SDS011;64845;53.086;5.834;2023-07-20T07:18:12;4.03;;;1.30;;
76113;SDS011;64845;53.086;5.834;2023-07-20T07:20:37;2.70;;;1.25;;
76113;SDS011;64845;53.086;5.834;2023-07-20T07:23:03;3.22;;;1.10;;
76113;SDS011;64845;53.086;5.834;2023-07-20T07:25:28;4.43;;;1.15;;
76113;SDS011;64845;53.086;5.834;2023-07-20T07:27:54;3.97;;;1.23;;
76113;SDS011;64845;53.086;5.834;2023-07-20T07:30:20;2.20;;;1.00;;
76113;SDS011;64845;53.086;5.834;2023-07-20T07:32:46;5.22;;;1.20;;
76113;SDS011;64845;53.086;5.834;2023-07-20T07:35:11;6.68;;;1.65;;
76113;SDS011;64845;53.086;5.834;2023-07-20T07:37:37;5.32;;;1.70;;
76113;SDS011;64845;53.086;5.834;2023-07-20T07:40:03;2.67;;;1.40;;
76113;SDS011;64845;53.086;5.834;2023-07-20T07:42:30;4.28;;;1.67;;
76113;SDS011;64845;53.086;5.834;2023-07-20T07:44:56;5.32;;;1.70;;
76113;SDS011;64845;53.086;5.834;2023-07-20T07:47:21;3.67;;;1.67;;
76113;SDS011;64845;53.086;5.834;2023-07-20T07:49:47;4.25;;;1.67;;
76113;SDS011;64845;53.086;5.834;2023-07-20T07:52:12;3.83;;;1.75;;
76113;SDS011;64845;53.086;5.834;2023-07-20T07:54:39;3.63;;;1.63;;
76113;SDS011;64845;53.086;5.834;2023-07-20T07:57:04;3.60;;;1.48;;
76113;SDS011;64845;53.086;5.834;2023-07-20T07:59:30;4.65;;;1.50;;
76113;SDS011;64845;53.086;5.834;2023-07-20T08:02:00;4.28;;;1.58;;
76113;SDS011;64845;53.086;5.834;2023-07-20T08:04:25;4.75;;;2.40;;
76113;SDS011;64845;53.086;5.834;2023-07-20T08:06:51;3.97;;;1.80;;
76113;SDS011;64845;53.086;5.834;2023-07-20T08:09:16;4.15;;;1.88;;
76113;SDS011;64845;53.086;5.834;2023-07-20T08:11:41;4.88;;;1.77;;
76113;SDS011;64845;53.086;5.834;2023-07-20T08:14:07;4.30;;;1.70;;
76113;SDS011;64845;53.086;5.834;2023-07-20T08:16:32;8.20;;;1.77;;
76113;SDS011;64845;53.086;5.834;2023-07-20T08:18:58;2.40;;;1.45;;
76113;SDS011;64845;53.086;5.834;2023-07-20T08:21:24;2.63;;;1.80;;
76113;SDS011;64845;53.086;5.834;2023-07-20T08:23:49;3.75;;;1.83;;
76113;SDS011;64845;53.086;5.834;2023-07-20T08:26:15;3.10;;;1.75;;
76113;SDS011;64845;53.086;5.834;2023-07-20T08:28:40;4.30;;;2.13;;
76113;SDS011;64845;53.086;5.834;2023-07-20T08:31:05;2.90;;;1.90;;
76113;SDS011;64845;53.086;5.834;2023-07-20T08:33:32;6.15;;;1.85;;
76113;SDS011;64845;53.086;5.834;2023-07-20T08:35:58;3.45;;;1.60;;
76113;SDS011;64845;53.086;5.834;2023-07-20T08:38:26;3.53;;;2.00;;
76113;SDS011;64845;53.086;5.834;2023-07-20T08:40:51;5.85;;;1.73;;
76113;SDS011;64845;53.086;5.834;2023-07-20T08:43:18;3.25;;;1.50;;
76113;SDS011;64845;53.086;5.834;2023-07-20T08:45:44;2.88;;;1.83;;
76113;SDS011;64845;53.086;5.834;2023-07-20T08:48:11;3.65;;;1.52;;
76113;SDS011;64845;53.086;5.834;2023-07-20T08:50:37;6.80;;;2.33;;
76113;SDS011;64845;53.086;5.834;2023-07-20T08:53:03;5.68;;;2.08;;
76113;SDS011;64845;53.086;5.834;2023-07-20T08:55:29;3.22;;;1.70;;
76113;SDS011;64845;53.086;5.834;2023-07-20T08:57:56;5.28;;;1.80;;
76113;SDS011;64845;53.086;5.834;2023-07-20T09:00:23;2.55;;;1.60;;
76113;SDS011;64845;53.086;5.834;2023-07-20T09:02:50;2.85;;;1.65;;
76113;SDS011;64845;53.086;5.834;2023-07-20T09:05:18;5.85;;;2.45;;
76113;SDS011;64845;53.086;5.834;2023-07-20T09:07:44;3.22;;;1.75;;
76113;SDS011;64845;53.086;5.834;2023-07-20T09:10:10;3.58;;;1.98;;
76113;SDS011;64845;53.086;5.834;2023-07-20T09:12:39;5.28;;;1.73;;
76113;SDS011;64845;53.086;5.834;2023-07-20T09:15:06;8.50;;;1.92;;
76113;SDS011;64845;53.086;5.834;2023-07-20T09:17:32;5.40;;;1.42;;
76113;SDS011;64845;53.086;5.834;2023-07-20T09:19:58;4.43;;;1.90;;
76113;SDS011;64845;53.086;5.834;2023-07-20T09:22:30;4.85;;;1.80;;
76113;SDS011;64845;53.086;5.834;2023-07-20T09:24:56;4.32;;;1.98;;
76113;SDS011;64845;53.086;5.834;2023-07-20T09:27:22;3.70;;;1.65;;
76113;SDS011;64845;53.086;5.834;2023-07-20T09:29:54;3.38;;;1.50;;
76113;SDS011;64845;53.086;5.834;2023-07-20T09:32:21;3.95;;;2.03;;
76113;SDS011;64845;53.086;5.834;2023-07-20T09:34:47;3.25;;;1.90;;
76113;SDS011;64845;53.086;5.834;2023-07-20T09:37:19;4.70;;;2.20;;
76113;SDS011;64845;53.086;5.834;2023-07-20T09:39:48;7.10;;;2.05;;
76113;SDS011;64845;53.086;5.834;2023-07-20T09:42:16;6.00;;;2.10;;
76113;SDS011;64845;53.086;5.834;2023-07-20T09:44:43;4.25;;;2.17;;
76113;SDS011;64845;53.086;5.834;2023-07-20T09:47:09;5.47;;;1.85;;
76113;SDS011;64845;53.086;5.834;2023-07-20T09:49:41;6.20;;;1.80;;
76113;SDS011;64845;53.086;5.834;2023-07-20T09:52:08;5.43;;;1.90;;
76113;SDS011;64845;53.086;5.834;2023-07-20T09:54:34;4.68;;;2.05;;
76113;SDS011;64845;53.086;5.834;2023-07-20T09:57:03;3.50;;;1.98;;
76113;SDS011;64845;53.086;5.834;2023-07-20T09:59:31;4.15;;;1.88;;
76113;SDS011;64845;53.086;5.834;2023-07-20T10:01:58;3.85;;;1.90;;
76113;SDS011;64845;53.086;5.834;2023-07-20T10:04:25;3.50;;;1.85;;
76113;SDS011;64845;53.086;5.834;2023-07-20T10:06:52;3.50;;;2.00;;
76113;SDS011;64845;53.086;5.834;2023-07-20T10:09:20;4.72;;;2.15;;
76113;SDS011;64845;53.086;5.834;2023-07-20T10:11:52;3.13;;;1.80;;
76113;SDS011;64845;53.086;5.834;2023-07-20T10:14:21;4.85;;;2.17;;
76113;SDS011;64845;53.086;5.834;2023-07-20T10:16:50;7.60;;;2.00;;
76113;SDS011;64845;53.086;5.834;2023-07-20T10:19:19;3.15;;;1.80;;
76113;SDS011;64845;53.086;5.834;2023-07-20T10:21:56;5.15;;;1.83;;
76113;SDS011;64845;53.086;5.834;2023-07-20T10:24:28;7.57;;;2.00;;
76113;SDS011;64845;53.086;5.834;2023-07-20T10:26:55;6.55;;;2.15;;
76113;SDS011;64845;53.086;5.834;2023-07-20T10:29:21;5.60;;;1.88;;
76113;SDS011;64845;53.086;5.834;2023-07-20T10:31:48;3.13;;;1.92;;
76113;SDS011;64845;53.086;5.834;2023-07-20T10:34:14;8.63;;;2.00;;
76113;SDS011;64845;53.086;5.834;2023-07-20T10:36:44;3.85;;;1.85;;
76113;SDS011;64845;53.086;5.834;2023-07-20T10:39:24;3.58;;;1.90;;
76113;SDS011;64845;53.086;5.834;2023-07-20T10:41:59;6.63;;;2.03;;
76113;SDS011;64845;53.086;5.834;2023-07-20T10:44:26;5.22;;;1.95;;
76113;SDS011;64845;53.086;5.834;2023-07-20T10:46:52;5.60;;;1.92;;
76113;SDS011;64845;53.086;5.834;2023-07-20T10:49:24;6.97;;;2.10;;
76113;SDS011;64845;53.086;5.834;2023-07-20T10:51:56;6.15;;;2.17;;
76113;SDS011;64845;53.086;5.834;2023-07-20T10:57:22;5.60;;;1.95;;
76113;SDS011;64845;53.086;5.834;2023-07-20T10:59:48;3.90;;;1.83;;
76113;SDS011;64845;53.086;5.834;2023-07-20T11:02:17;4.55;;;1.95;;
76113;SDS011;64845;53.086;5.834;2023-07-20T11:04:47;6.57;;;1.60;;
76113;SDS011;64845;53.086;5.834;2023-07-20T11:09:43;2.42;;;1.60;;
76113;SDS011;64845;53.086;5.834;2023-07-20T11:12:17;4.20;;;1.88;;
76113;SDS011;64845;53.086;5.834;2023-07-20T11:14:44;5.03;;;1.90;;
76113;SDS011;64845;53.086;5.834;2023-07-20T11:17:19;3.38;;;1.70;;
76113;SDS011;64845;53.086;5.834;2023-07-20T11:19:47;5.82;;;1.67;;
76113;SDS011;64845;53.086;5.834;2023-07-20T11:22:13;13.90;;;2.40;;
76113;SDS011;64845;53.086;5.834;2023-07-20T11:24:42;4.13;;;1.70;;
76113;SDS011;64845;53.086;5.834;2023-07-20T11:27:07;3.15;;;1.63;;
76113;SDS011;64845;53.086;5.834;2023-07-20T11:29:34;8.95;;;1.95;;
76113;SDS011;64845;53.086;5.834;2023-07-20T11:32:01;6.40;;;1.92;;
76113;SDS011;64845;53.086;5.834;2023-07-20T11:34:29;5.03;;;1.92;;
76113;SDS011;64845;53.086;5.834;2023-07-20T11:36:55;4.32;;;1.55;;
76113;SDS011;64845;53.086;5.834;2023-07-20T11:39:21;3.50;;;1.60;;
76113;SDS011;64845;53.086;5.834;2023-07-20T11:41:48;3.35;;;1.70;;
76113;SDS011;64845;53.086;5.834;2023-07-20T11:44:18;3.75;;;1.50;;
76113;SDS011;64845;53.086;5.834;2023-07-20T11:47:09;2.13;;;1.35;;
76113;SDS011;64845;53.086;5.834;2023-07-20T11:49:43;5.55;;;2.25;;
76113;SDS011;64845;53.086;5.834;2023-07-20T11:52:18;3.30;;;1.65;;
76113;SDS011;64845;53.086;5.834;2023-07-20T11:54:43;2.00;;;1.30;;
76113;SDS011;64845;53.086;5.834;2023-07-20T11:57:19;2.10;;;1.20;;
76113;SDS011;64845;53.086;5.834;2023-07-20T11:59:58;2.55;;;1.30;;
76113;SDS011;64845;53.086;5.834;2023-07-20T12:02:29;3.63;;;1.40;;
76113;SDS011;64845;53.086;5.834;2023-07-20T12:04:55;4.57;;;1.73;;
76113;SDS011;64845;53.086;5.834;2023-07-20T12:07:22;2.83;;;1.48;;
76113;SDS011;64845;53.086;5.834;2023-07-20T12:10:06;4.60;;;1.40;;
76113;SDS011;64845;53.086;5.834;2023-07-20T12:12:34;3.60;;;1.80;;
76113;SDS011;64845;53.086;5.834;2023-07-20T12:15:15;6.30;;;1.20;;
76113;SDS011;64845;53.086;5.834;2023-07-20T12:17:58;6.13;;;1.40;;
76113;SDS011;64845;53.086;5.834;2023-07-20T12:22:55;5.75;;;1.50;;
76113;SDS011;64845;53.086;5.834;2023-07-20T12:25:22;3.25;;;1.30;;
76113;SDS011;64845;53.086;5.834;2023-07-20T12:27:48;3.67;;;1.70;;
76113;SDS011;64845;53.086;5.834;2023-07-20T12:30:13;2.22;;;1.40;;
76113;SDS011;64845;53.086;5.834;2023-07-20T12:32:39;4.65;;;1.73;;
76113;SDS011;64845;53.086;5.834;2023-07-20T12:35:05;3.95;;;1.75;;
76113;SDS011;64845;53.086;5.834;2023-07-20T12:37:31;1.83;;;1.17;;
76113;SDS011;64845;53.086;5.834;2023-07-20T12:39:57;3.55;;;1.40;;
76113;SDS011;64845;53.086;5.834;2023-07-20T12:42:22;2.25;;;1.30;;
76113;SDS011;64845;53.086;5.834;2023-07-20T12:44:49;5.03;;;1.50;;
76113;SDS011;64845;53.086;5.834;2023-07-20T12:47:14;2.28;;;1.17;;
76113;SDS011;64845;53.086;5.834;2023-07-20T12:49:40;2.80;;;1.30;;
76113;SDS011;64845;53.086;5.834;2023-07-20T12:52:05;5.13;;;1.30;;
76113;SDS011;64845;53.086;5.834;2023-07-20T12:54:31;4.90;;;1.20;;
76113;SDS011;64845;53.086;5.834;2023-07-20T12:56:57;3.90;;;1.10;;
76113;SDS011;64845;53.086;5.834;2023-07-20T12:59:23;2.10;;;1.27;;
76113;SDS011;64845;53.086;5.834;2023-07-20T13:01:48;1.60;;;1.02;;
76113;SDS011;64845;53.086;5.834;2023-07-20T13:04:13;2.47;;;1.05;;
76113;SDS011;64845;53.086;5.834;2023-07-20T13:06:39;1.40;;;0.88;;
76113;SDS011;64845;53.086;5.834;2023-07-20T13:09:04;3.60;;;1.00;;
76113;SDS011;64845;53.086;5.834;2023-07-20T13:11:30;1.85;;;1.20;;
76113;SDS011;64845;53.086;5.834;2023-07-20T13:13:55;2.67;;;1.27;;
76113;SDS011;64845;53.086;5.834;2023-07-20T13:16:20;4.97;;;1.23;;
76113;SDS011;64845;53.086;5.834;2023-07-20T13:18:46;2.88;;;1.10;;
76113;SDS011;64845;53.086;5.834;2023-07-20T13:21:11;1.65;;;1.15;;
76113;SDS011;64845;53.086;5.834;2023-07-20T13:23:37;1.60;;;1.25;;
76113;SDS011;64845;53.086;5.834;2023-07-20T13:26:02;1.75;;;1.08;;
76113;SDS011;64845;53.086;5.834;2023-07-20T13:28:29;4.30;;;1.33;;
76113;SDS011;64845;53.086;5.834;2023-07-20T13:30:55;2.33;;;1.30;;
76113;SDS011;64845;53.086;5.834;2023-07-20T13:33:20;1.20;;;1.10;;
76113;SDS011;64845;53.086;5.834;2023-07-20T13:35:45;3.60;;;1.10;;
76113;SDS011;64845;53.086;5.834;2023-07-20T13:38:11;2.05;;;1.05;;
76113;SDS011;64845;53.086;5.834;2023-07-20T13:40:37;3.38;;;1.10;;
76113;SDS011;64845;53.086;5.834;2023-07-20T13:43:02;3.17;;;1.13;;
76113;SDS011;64845;53.086;5.834;2023-07-20T13:45:28;2.78;;;1.27;;
76113;SDS011;64845;53.086;5.834;2023-07-20T13:47:53;2.35;;;1.10;;
76113;SDS011;64845;53.086;5.834;2023-07-20T13:50:18;1.60;;;1.10;;
76113;SDS011;64845;53.086;5.834;2023-07-20T13:52:44;3.83;;;1.30;;
76113;SDS011;64845;53.086;5.834;2023-07-20T13:55:09;4.65;;;1.38;;
76113;SDS011;64845;53.086;5.834;2023-07-20T13:57:35;7.32;;;1.40;;
76113;SDS011;64845;53.086;5.834;2023-07-20T14:00:00;3.05;;;1.50;;
76113;SDS011;64845;53.086;5.834;2023-07-20T14:02:27;2.60;;;1.50;;
76113;SDS011;64845;53.086;5.834;2023-07-20T14:04:52;1.70;;;1.30;;
76113;SDS011;64845;53.086;5.834;2023-07-20T14:07:20;4.50;;;1.30;;
76113;SDS011;64845;53.086;5.834;2023-07-20T14:09:46;2.33;;;1.23;;
76113;SDS011;64845;53.086;5.834;2023-07-20T14:12:12;2.30;;;1.10;;
76113;SDS011;64845;53.086;5.834;2023-07-20T14:14:39;1.45;;;1.10;;
76113;SDS011;64845;53.086;5.834;2023-07-20T14:17:05;9.32;;;1.80;;
76113;SDS011;64845;53.086;5.834;2023-07-20T14:19:31;4.68;;;1.45;;
76113;SDS011;64845;53.086;5.834;2023-07-20T14:21:57;2.42;;;1.20;;
76113;SDS011;64845;53.086;5.834;2023-07-20T14:24:24;4.50;;;1.52;;
76113;SDS011;64845;53.086;5.834;2023-07-20T14:26:50;2.38;;;1.35;;
76113;SDS011;64845;53.086;5.834;2023-07-20T14:29:15;3.40;;;1.80;;
76113;SDS011;64845;53.086;5.834;2023-07-20T14:31:42;5.55;;;1.45;;
76113;SDS011;64845;53.086;5.834;2023-07-20T14:34:08;1.58;;;1.02;;
76113;SDS011;64845;53.086;5.834;2023-07-20T14:36:33;2.50;;;1.23;;
76113;SDS011;64845;53.086;5.834;2023-07-20T14:38:59;3.00;;;1.17;;
76113;SDS011;64845;53.086;5.834;2023-07-20T14:41:24;3.67;;;1.35;;
76113;SDS011;64845;53.086;5.834;2023-07-20T14:43:50;2.63;;;1.23;;
76113;SDS011;64845;53.086;5.834;2023-07-20T14:46:15;1.55;;;1.30;;
76113;SDS011;64845;53.086;5.834;2023-07-20T14:48:40;1.30;;;1.10;;
76113;SDS011;64845;53.086;5.834;2023-07-20T14:51:06;5.18;;;1.52;;
76113;SDS011;64845;53.086;5.834;2023-07-20T14:53:31;3.03;;;1.50;;
76113;SDS011;64845;53.086;5.834;2023-07-20T14:56:00;4.47;;;1.40;;
76113;SDS011;64845;53.086;5.834;2023-07-20T14:58:26;6.00;;;1.70;;
76113;SDS011;64845;53.086;5.834;2023-07-20T15:00:52;2.75;;;1.40;;
76113;SDS011;64845;53.086;5.834;2023-07-20T15:03:17;5.50;;;1.45;;
76113;SDS011;64845;53.086;5.834;2023-07-20T15:05:43;2.63;;;1.50;;